Terminal Aerodrome Forecast
Issued by NWS Sioux Falls, SD

Home | Current Version | Previous Version | Graphics & Text | Print | Product List | Glossary On
Versions: 1 2 3 4 5 6 7 8 9 10 11 12 13 14 15 16
703
FTUS43 KFSD 121725
TAFHON
TAF
KHON 121725Z 1218/1318 23009KT P6SM SCT080
     FM130300 23006KT P6SM SCT200 WS020/30040KT
     FM130800 31016KT P6SM BKN100
     FM131600 33022G30KT P6SM BKN030=

USA.gov is the U.S. government's official web portal to all federal, state and local government web resources and services.